createdAt,value
2017-07-19T00:01:11.917Z,66.10
2017-07-19T00:03:40.768Z,66.80
2017-07-19T00:06:10.770Z,67.60
2017-07-19T00:08:39.223Z,68.50
2017-07-19T00:11:08.808Z,69.50
2017-07-19T00:13:37.258Z,70.80
2017-07-19T00:16:06.139Z,71.60
2017-07-19T00:18:34.656Z,72.00
2017-07-19T00:21:03.170Z,72.60
2017-07-19T00:23:31.612Z,72.80
2017-07-19T00:26:00.902Z,72.20
2017-07-19T00:28:29.364Z,72.80
2017-07-19T00:30:58.255Z,73.50
2017-07-19T00:33:27.175Z,73.30
2017-07-19T00:35:56.395Z,73.60
2017-07-19T00:38:25.232Z,74.30
2017-07-19T00:40:54.154Z,74.80
2017-07-19T00:43:22.608Z,74.60
2017-07-19T00:45:51.465Z,74.50
2017-07-19T00:48:20.713Z,75.20
2017-07-19T00:50:49.926Z,75.90
2017-07-19T00:53:18.379Z,77.80
2017-07-19T00:55:46.932Z,77.80
2017-07-19T00:58:16.290Z,77.50
2017-07-19T01:00:45.152Z,77.30
2017-07-19T01:03:14.001Z,77.40
2017-07-19T01:05:42.466Z,77.00
2017-07-19T01:08:11.373Z,76.50
2017-07-19T01:10:39.841Z,76.30
2017-07-19T01:13:08.720Z,77.50
2017-07-19T01:15:37.212Z,77.90
2017-07-19T01:18:05.673Z,78.20
2017-07-19T01:20:35.120Z,78.30
2017-07-19T01:23:04.755Z,78.50
2017-07-19T01:25:33.240Z,79.30
2017-07-19T01:28:01.713Z,79.80
2017-07-19T01:30:31.068Z,79.80
2017-07-19T01:32:59.590Z,81.30
2017-07-19T01:35:28.543Z,81.80
2017-07-19T01:37:57.501Z,81.90
2017-07-19T01:40:25.966Z,82.50
2017-07-19T01:42:54.419Z,82.80
2017-07-19T01:45:23.346Z,83.70
2017-07-19T01:47:52.203Z,84.00
2017-07-19T01:50:21.811Z,83.80
2017-07-19T01:52:50.362Z,84.70
2017-07-19T01:55:19.233Z,85.20
2017-07-19T01:57:49.850Z,84.90
2017-07-19T02:00:18.730Z,85.00
2017-07-19T02:02:47.586Z,85.20
2017-07-19T02:05:16.539Z,85.90
2017-07-19T02:07:46.551Z,86.40
2017-07-19T02:10:15.071Z,86.50
2017-07-19T02:12:43.923Z,86.70
2017-07-19T02:15:12.445Z,87.30
2017-07-19T02:17:41.304Z,87.20
2017-07-19T02:20:10.202Z,87.00
2017-07-19T02:22:39.686Z,86.50
2017-07-19T02:25:08.893Z,87.00
2017-07-19T02:27:37.370Z,87.30
2017-07-19T02:30:06.288Z,87.90
2017-07-19T02:32:35.164Z,88.30
2017-07-19T02:35:04.077Z,88.70
2017-07-19T02:37:33.656Z,89.10
2017-07-19T02:40:02.636Z,89.90
2017-07-19T02:42:31.544Z,90.60
2017-07-19T02:45:00.003Z,90.80
2017-07-19T02:47:28.829Z,91.40
2017-07-19T02:49:57.320Z,91.20
2017-07-19T02:52:25.766Z,91.40
2017-07-19T02:54:54.887Z,91.50
2017-07-19T02:57:23.351Z,91.70
2017-07-19T02:59:51.834Z,92.30
2017-07-19T03:02:21.300Z,92.60
2017-07-19T03:04:50.578Z,92.30
2017-07-19T03:07:19.063Z,92.90
2017-07-19T03:09:47.556Z,92.90
2017-07-19T03:12:16.448Z,91.60
2017-07-19T03:14:44.910Z,90.90
2017-07-19T03:17:13.496Z,90.80
2017-07-19T03:19:42.350Z,91.20
2017-07-19T03:22:10.152Z,92.10
2017-07-19T03:24:38.656Z,92.70
2017-07-19T03:27:07.498Z,93.10
2017-07-19T03:29:35.978Z,93.40
2017-07-19T03:32:05.984Z,93.50
2017-07-19T03:34:35.207Z,93.40
2017-07-19T03:37:03.722Z,93.80
2017-07-19T03:39:32.717Z,93.20
2017-07-19T03:42:01.411Z,92.80
2017-07-19T03:44:30.335Z,92.30
2017-07-19T03:46:59.184Z,91.80
2017-07-19T03:49:27.654Z,92.00
2017-07-19T03:51:56.160Z,92.10
2017-07-19T03:54:24.610Z,91.70
2017-07-19T03:56:53.321Z,91.50
2017-07-19T03:59:21.783Z,91.20
2017-07-19T04:01:51.246Z,90.60
2017-07-19T04:04:19.755Z,90.50
2017-07-19T04:06:48.194Z,89.90
2017-07-19T04:09:16.686Z,89.70
2017-07-19T04:11:45.535Z,89.40
2017-07-19T04:14:15.607Z,89.10
2017-07-19T04:16:44.117Z,89.50
2017-07-19T04:19:13.323Z,89.30
2017-07-19T04:21:42.195Z,88.80
2017-07-19T04:26:40.551Z,87.60
2017-07-19T04:29:09.811Z,86.70
2017-07-19T04:31:38.750Z,86.40
2017-07-19T04:34:07.596Z,86.10
2017-07-19T04:36:36.037Z,85.90
2017-07-19T04:39:04.284Z,85.70
2017-07-19T04:41:32.828Z,85.70
2017-07-19T04:44:01.297Z,85.70
2017-07-19T04:46:29.764Z,86.00
2017-07-19T04:48:58.298Z,84.80
2017-07-19T04:51:26.641Z,84.00
2017-07-19T04:53:55.505Z,82.80
2017-07-19T04:56:23.821Z,82.50
2017-07-19T04:58:52.696Z,81.00
2017-07-19T05:01:22.674Z,79.80
2017-07-19T05:03:51.621Z,75.30
2017-07-19T05:06:20.858Z,69.90
2017-07-19T05:08:49.328Z,68.00
2017-07-19T05:11:18.966Z,65.30
2017-07-19T05:13:47.826Z,63.30
2017-07-19T05:16:16.756Z,60.90
2017-07-19T05:18:45.959Z,57.30
2017-07-19T05:21:14.403Z,57.80
2017-07-19T05:23:43.874Z,58.60
2017-07-19T05:26:12.384Z,58.10
2017-07-19T05:28:41.269Z,56.00
2017-07-19T05:31:10.133Z,54.90
2017-07-19T05:33:38.660Z,53.40
2017-07-19T05:36:07.127Z,52.30
2017-07-19T05:38:36.351Z,52.80
2017-07-19T05:41:04.864Z,51.90
2017-07-19T05:43:34.061Z,47.50
2017-07-19T05:46:02.987Z,48.80
2017-07-19T05:48:31.636Z,49.30
2017-07-19T05:51:00.083Z,47.70
2017-07-19T05:53:29.024Z,50.80
2017-07-19T05:55:58.057Z,52.60
2017-07-19T05:58:26.521Z,49.90
2017-07-19T06:00:55.823Z,47.60
2017-07-19T06:03:25.168Z,44.30
2017-07-19T06:05:53.634Z,41.00
2017-07-19T06:08:22.546Z,42.80
2017-07-19T06:10:51.008Z,42.90
2017-07-19T06:13:20.582Z,42.60
2017-07-19T06:15:49.041Z,39.60
2017-07-19T06:18:17.565Z,40.30
2017-07-19T06:20:46.089Z,40.00
2017-07-19T06:23:14.540Z,40.40
2017-07-19T06:25:43.019Z,41.60
2017-07-19T06:28:11.925Z,41.00
2017-07-19T06:30:40.411Z,40.10
2017-07-19T06:33:09.295Z,40.80
2017-07-19T06:35:37.797Z,40.20
2017-07-19T06:38:06.277Z,39.30
2017-07-19T06:40:34.733Z,35.30
2017-07-19T06:43:03.936Z,36.10
2017-07-19T06:45:32.385Z,38.90
2017-07-19T06:48:01.460Z,38.70
2017-07-19T06:50:30.749Z,38.70
2017-07-19T06:52:59.600Z,38.60
2017-07-19T06:55:28.852Z,41.70
2017-07-19T06:57:57.745Z,42.30
2017-07-19T07:00:26.951Z,45.60
2017-07-19T07:02:55.600Z,45.80
2017-07-19T07:05:24.803Z,45.00
2017-07-19T07:07:53.688Z,39.90
2017-07-19T07:10:22.533Z,38.50
2017-07-19T07:12:51.048Z,35.30
2017-07-19T07:15:19.600Z,34.40
2017-07-19T07:17:48.089Z,31.30
2017-07-19T07:20:16.581Z,30.00
2017-07-19T07:22:46.598Z,28.10
2017-07-19T07:25:15.105Z,27.90
2017-07-19T07:27:43.941Z,27.60
2017-07-19T07:30:12.404Z,27.90
2017-07-19T07:32:40.926Z,25.60
2017-07-19T07:35:09.373Z,26.90
2017-07-19T07:37:37.844Z,26.90
2017-07-19T07:40:07.131Z,27.50
2017-07-19T07:42:35.664Z,28.20
2017-07-19T07:45:04.511Z,28.70
2017-07-19T07:47:33.352Z,26.20
2017-07-19T07:50:01.886Z,25.20
2017-07-19T07:52:30.571Z,25.00
2017-07-19T07:54:59.494Z,24.30
2017-07-19T07:57:27.951Z,23.50
2017-07-19T07:59:56.779Z,26.10
2017-07-19T08:02:25.679Z,23.80
2017-07-19T08:04:54.230Z,22.30
2017-07-19T08:07:23.049Z,21.70
2017-07-19T08:12:23.250Z,23.60
2017-07-19T08:14:52.166Z,22.20
2017-07-19T08:17:20.592Z,19.80
2017-07-19T08:19:49.424Z,19.10
2017-07-19T08:22:18.752Z,18.70
2017-07-19T08:24:47.620Z,18.80
2017-07-19T08:27:16.459Z,18.80
2017-07-19T08:29:45.348Z,19.20
2017-07-19T08:32:13.793Z,20.40
2017-07-19T08:34:43.110Z,21.20
2017-07-19T08:37:13.271Z,21.40
2017-07-19T08:39:42.140Z,20.60
2017-07-19T08:42:10.946Z,19.80
2017-07-19T08:44:39.085Z,19.00
2017-07-19T08:47:07.977Z,17.70
2017-07-19T08:49:36.429Z,18.40
2017-07-19T08:52:04.937Z,18.60
2017-07-19T08:54:33.423Z,16.80
2017-07-19T08:57:01.874Z,18.00
2017-07-19T08:59:30.366Z,18.80
2017-07-19T09:01:59.213Z,19.90
2017-07-19T09:04:28.129Z,20.10
2017-07-19T09:06:56.966Z,20.50
2017-07-19T09:09:26.214Z,21.90
2017-07-19T09:11:55.428Z,21.60
2017-07-19T09:14:25.147Z,20.60
2017-07-19T09:16:53.624Z,18.40
2017-07-19T09:19:23.589Z,18.50
2017-07-19T09:21:53.171Z,19.10
2017-07-19T09:24:22.070Z,17.60
2017-07-19T09:26:50.962Z,19.70
2017-07-19T09:29:20.173Z,18.00
2017-07-19T09:31:49.070Z,18.60
2017-07-19T09:34:17.509Z,18.70
2017-07-19T09:36:45.969Z,17.70
2017-07-19T09:39:15.096Z,17.60
2017-07-19T09:41:43.606Z,18.10
2017-07-19T09:44:12.471Z,18.20
2017-07-19T09:46:40.907Z,17.90
2017-07-19T09:49:09.579Z,19.20
2017-07-19T09:51:38.794Z,18.20
2017-07-19T09:54:08.360Z,17.30
2017-07-19T09:56:36.809Z,16.90
2017-07-19T09:59:05.278Z,17.20
2017-07-19T10:01:34.177Z,17.90
2017-07-19T10:04:03.013Z,17.60
2017-07-19T10:06:31.876Z,18.50
2017-07-19T10:09:00.380Z,19.30
2017-07-19T10:11:29.228Z,19.80
2017-07-19T10:13:58.117Z,17.80
2017-07-19T10:16:26.567Z,16.80
2017-07-19T10:18:55.250Z,18.90
2017-07-19T10:21:24.723Z,17.50
2017-07-19T10:23:53.862Z,18.50
2017-07-19T10:26:22.704Z,19.70
2017-07-19T10:28:52.134Z,17.30
2017-07-19T10:31:22.081Z,16.70
2017-07-19T10:33:50.548Z,15.10
2017-07-19T10:36:19.410Z,14.90
2017-07-19T10:38:48.077Z,14.60
2017-07-19T10:41:17.323Z,20.00
2017-07-19T10:43:45.775Z,19.10
2017-07-19T10:46:15.460Z,17.30
2017-07-19T10:48:44.343Z,16.90
2017-07-19T10:51:13.232Z,16.80
2017-07-19T10:53:42.125Z,16.00
2017-07-19T10:56:10.761Z,15.70
2017-07-19T10:58:39.223Z,16.80
2017-07-19T11:01:07.938Z,15.90
2017-07-19T11:03:36.796Z,16.50
2017-07-19T11:06:05.845Z,16.80
2017-07-19T11:08:34.324Z,16.50
2017-07-19T11:11:03.354Z,16.90
2017-07-19T11:13:33.196Z,17.00
2017-07-19T11:16:02.293Z,16.10
2017-07-19T11:21:02.130Z,16.50
2017-07-19T11:23:30.773Z,18.70
2017-07-19T11:25:59.298Z,17.30
2017-07-19T11:28:27.754Z,17.40
2017-07-19T11:30:56.962Z,18.90
2017-07-19T11:33:25.868Z,18.40
2017-07-19T11:35:54.945Z,18.10
2017-07-19T11:38:23.428Z,17.00
2017-07-19T11:43:45.076Z,16.40
2017-07-19T11:46:13.949Z,16.70
2017-07-19T11:48:42.844Z,17.60
2017-07-19T11:51:11.342Z,18.50
2017-07-19T11:53:40.198Z,16.90
2017-07-19T11:56:09.123Z,17.30
2017-07-19T11:58:38.442Z,18.70
2017-07-19T12:01:06.888Z,18.60
2017-07-19T12:03:35.744Z,18.00
2017-07-19T12:06:05.383Z,18.50
2017-07-19T12:08:34.224Z,20.80
2017-07-19T12:11:03.270Z,22.90
2017-07-19T12:13:32.200Z,18.30
2017-07-19T12:16:02.194Z,18.10
2017-07-19T12:18:31.054Z,18.20
2017-07-19T12:21:00.010Z,18.20
2017-07-19T12:23:30.278Z,17.80
2017-07-19T12:25:59.563Z,17.00
2017-07-19T12:28:31.152Z,19.50
2017-07-19T12:31:00.070Z,20.40
2017-07-19T12:33:28.972Z,21.10
2017-07-19T12:36:00.413Z,18.70
2017-07-19T12:38:30.323Z,19.80
2017-07-19T12:40:59.474Z,20.10
2017-07-19T12:43:28.555Z,20.70
2017-07-19T12:46:01.306Z,19.40
2017-07-19T12:48:30.327Z,19.60
2017-07-19T12:50:58.843Z,19.00
2017-07-19T12:53:27.451Z,18.90
2017-07-19T12:55:56.007Z,18.40
2017-07-19T12:58:24.574Z,19.10
2017-07-19T13:00:53.023Z,20.70
2017-07-19T13:03:21.771Z,19.60
2017-07-19T13:05:50.790Z,18.70
2017-07-19T13:08:19.244Z,18.40
2017-07-19T13:10:48.150Z,18.30
2017-07-19T13:13:17.008Z,19.30
2017-07-19T13:15:46.373Z,19.40
2017-07-19T13:18:14.898Z,19.20
2017-07-19T13:20:43.591Z,19.40
2017-07-19T13:23:12.965Z,17.50
2017-07-19T13:25:41.489Z,17.90
2017-07-19T13:28:10.321Z,18.00
2017-07-19T13:30:39.159Z,19.20
2017-07-19T13:33:08.492Z,18.60
2017-07-19T13:35:36.969Z,19.20
2017-07-19T13:38:06.673Z,20.10
2017-07-19T13:40:36.044Z,19.30
2017-07-19T13:43:04.540Z,21.00
2017-07-19T13:45:33.396Z,19.00
2017-07-19T13:48:01.913Z,20.00
2017-07-19T13:50:30.363Z,20.40
2017-07-19T13:52:59.246Z,19.20
2017-07-19T13:55:27.971Z,19.90
2017-07-19T13:57:57.219Z,20.40
2017-07-19T14:00:26.086Z,19.90
2017-07-19T14:02:54.557Z,19.00
2017-07-19T14:05:23.797Z,18.60
2017-07-19T14:07:52.094Z,17.80
2017-07-19T14:10:20.976Z,18.80
2017-07-19T14:12:49.894Z,18.40
2017-07-19T14:15:18.396Z,17.90
2017-07-19T14:17:47.721Z,19.30
2017-07-19T14:20:16.929Z,19.40
2017-07-19T14:22:45.378Z,20.80
2017-07-19T14:25:15.236Z,20.50
2017-07-19T14:27:43.701Z,22.50
2017-07-19T14:30:12.169Z,21.60
2017-07-19T14:32:41.057Z,19.80
2017-07-19T14:35:09.500Z,20.20
2017-07-19T14:37:38.390Z,20.30
2017-07-19T14:40:07.289Z,19.00
2017-07-19T14:42:36.124Z,19.20
2017-07-19T14:45:05.137Z,17.50
2017-07-19T14:47:33.674Z,17.40
2017-07-19T14:50:02.137Z,17.40
2017-07-19T14:52:31.363Z,18.40
2017-07-19T14:55:00.622Z,18.90
2017-07-19T14:57:29.076Z,19.30
2017-07-19T14:59:57.795Z,19.50
2017-07-19T15:02:26.317Z,19.20
2017-07-19T15:04:55.213Z,18.80
2017-07-19T15:07:23.688Z,19.40
2017-07-19T15:09:53.434Z,20.00
2017-07-19T15:12:21.885Z,19.60
2017-07-19T15:14:52.473Z,18.70
2017-07-19T15:17:20.933Z,19.90
2017-07-19T15:19:50.495Z,20.50
2017-07-19T15:22:19.086Z,19.60
2017-07-19T15:27:16.993Z,18.90
2017-07-19T15:29:46.267Z,18.10
2017-07-19T15:32:15.125Z,19.00
2017-07-19T15:34:44.001Z,18.20
2017-07-19T15:37:12.890Z,19.50
2017-07-19T15:39:41.171Z,19.60
2017-07-19T15:42:10.802Z,19.90
2017-07-19T15:44:39.379Z,20.00
2017-07-19T15:47:08.994Z,20.70
2017-07-19T15:49:37.548Z,23.10
2017-07-19T15:52:06.029Z,23.60
2017-07-19T15:54:34.502Z,25.60
2017-07-19T15:57:04.241Z,26.20
2017-07-19T15:59:33.129Z,26.40
2017-07-19T16:02:01.635Z,27.80
2017-07-19T16:04:30.893Z,28.10
2017-07-19T16:07:00.121Z,27.60
2017-07-19T16:09:28.629Z,25.70
2017-07-19T16:11:57.102Z,25.00
2017-07-19T16:14:26.166Z,25.70
2017-07-19T16:16:55.053Z,25.90
2017-07-19T16:19:23.931Z,27.60
2017-07-19T16:21:53.352Z,27.70
2017-07-19T16:24:21.863Z,28.00
2017-07-19T16:26:50.347Z,28.10
2017-07-19T16:29:18.811Z,29.10
2017-07-19T16:31:47.299Z,28.80
2017-07-19T16:34:15.749Z,28.80
2017-07-19T16:36:44.196Z,29.00
2017-07-19T16:39:13.969Z,29.90
2017-07-19T16:41:42.461Z,30.70
2017-07-19T16:44:11.092Z,30.20
2017-07-19T16:46:40.016Z,30.20
2017-07-19T16:49:09.241Z,30.50
2017-07-19T16:54:07.948Z,28.80
2017-07-19T16:56:36.852Z,25.80
2017-07-19T17:01:34.873Z,25.00
2017-07-19T17:04:04.553Z,24.70
2017-07-19T17:06:34.312Z,24.40
2017-07-19T17:09:02.771Z,24.60
2017-07-19T17:11:31.666Z,25.40
2017-07-19T17:16:25.292Z,27.30
2017-07-19T17:18:54.153Z,27.30
2017-07-19T17:21:22.993Z,27.60
2017-07-19T17:23:51.465Z,27.00
2017-07-19T17:26:20.301Z,26.70
2017-07-19T17:28:49.162Z,27.70
2017-07-19T17:31:17.598Z,26.60
2017-07-19T17:33:46.098Z,27.60
2017-07-19T17:36:14.380Z,27.20
2017-07-19T17:38:42.916Z,27.30
2017-07-19T17:41:11.750Z,28.00
2017-07-19T17:43:40.574Z,28.90
2017-07-19T17:46:09.851Z,29.80
2017-07-19T17:48:38.306Z,28.60
2017-07-19T17:51:07.721Z,29.90
2017-07-19T17:53:36.198Z,31.30
2017-07-19T17:56:04.641Z,31.50
2017-07-19T17:58:33.085Z,32.60
2017-07-19T18:01:01.568Z,34.40
2017-07-19T18:03:29.998Z,34.70
2017-07-19T18:05:58.481Z,34.60
2017-07-19T18:08:26.944Z,35.20
2017-07-19T18:10:55.764Z,36.00
2017-07-19T18:13:24.252Z,37.90
2017-07-19T18:15:53.094Z,39.40
2017-07-19T18:18:21.912Z,40.70
2017-07-19T18:20:50.805Z,41.20
2017-07-19T18:23:19.234Z,42.50
2017-07-19T18:25:47.683Z,44.30
2017-07-19T18:28:16.212Z,45.60
2017-07-19T18:30:45.466Z,47.30
2017-07-19T18:33:14.296Z,47.40
2017-07-19T18:35:42.723Z,48.60
2017-07-19T18:38:11.170Z,49.50
2017-07-19T18:40:39.658Z,49.50
2017-07-19T18:43:08.120Z,50.40
2017-07-19T18:45:36.559Z,50.40
2017-07-19T18:48:05.054Z,50.30
2017-07-19T18:50:33.492Z,50.00
2017-07-19T18:53:01.929Z,50.40
2017-07-19T18:55:31.526Z,50.60
2017-07-19T18:58:00.359Z,50.30
2017-07-19T19:00:28.807Z,50.30
2017-07-19T19:02:57.285Z,51.10
2017-07-19T19:05:26.514Z,50.60
2017-07-19T19:07:54.947Z,51.50
2017-07-19T19:10:23.441Z,53.30
2017-07-19T19:12:51.863Z,52.60
2017-07-19T19:15:20.700Z,55.50
2017-07-19T19:17:49.197Z,53.90
2017-07-19T19:20:17.646Z,53.80
2017-07-19T19:22:46.067Z,56.20
2017-07-19T19:25:14.568Z,56.20
2017-07-19T19:27:43.048Z,56.30
2017-07-19T19:30:11.543Z,55.60
2017-07-19T19:32:39.985Z,55.50
2017-07-19T19:35:08.497Z,55.70
2017-07-19T19:37:36.771Z,56.00
2017-07-19T19:40:05.234Z,55.60
2017-07-19T19:42:34.547Z,55.50
2017-07-19T19:45:02.996Z,56.10
2017-07-19T19:47:31.431Z,57.60
2017-07-19T19:50:00.320Z,50.20
2017-07-19T19:52:28.773Z,41.60
2017-07-19T19:54:57.990Z,38.80
2017-07-19T19:57:26.448Z,37.00
2017-07-19T19:59:55.150Z,38.90
2017-07-19T20:02:23.412Z,41.50
2017-07-19T20:04:52.659Z,46.20
2017-07-19T20:07:21.485Z,49.90
2017-07-19T20:09:49.928Z,69.00
2017-07-19T20:12:18.398Z,82.90
2017-07-19T20:14:47.247Z,89.40
2017-07-19T20:17:15.696Z,90.40
2017-07-19T20:19:44.929Z,93.50
2017-07-19T20:22:13.365Z,95.10
2017-07-19T20:24:41.847Z,95.80
2017-07-19T20:27:10.677Z,92.80
2017-07-19T20:29:39.109Z,96.00
2017-07-19T20:32:08.975Z,95.40
2017-07-19T20:34:38.172Z,97.00
2017-07-19T20:37:07.421Z,97.50
2017-07-19T20:39:35.867Z,98.60
2017-07-19T20:42:04.709Z,97.80
2017-07-19T20:47:02.660Z,97.60
2017-07-19T20:49:32.227Z,97.60
2017-07-19T20:52:00.705Z,98.10
2017-07-19T20:54:29.145Z,99.70
2017-07-19T20:56:58.270Z,98.50
2017-07-19T20:59:26.731Z,95.70
2017-07-19T21:01:55.940Z,97.00
2017-07-19T21:04:24.421Z,98.30
2017-07-19T21:06:52.890Z,99.30
2017-07-19T21:09:21.438Z,94.60
2017-07-19T21:11:49.909Z,95.10
2017-07-19T21:14:18.739Z,93.70
2017-07-19T21:16:47.220Z,95.20
2017-07-19T21:19:16.446Z,96.10
2017-07-19T21:21:46.517Z,98.40
2017-07-19T21:24:15.004Z,98.70
2017-07-19T21:26:43.468Z,98.70
2017-07-19T21:29:11.959Z,98.70
2017-07-19T21:31:40.396Z,99.90
2017-07-19T21:34:09.222Z,98.70
2017-07-19T21:36:38.109Z,98.40
2017-07-19T21:39:08.028Z,97.60
2017-07-19T21:41:36.609Z,95.60
2017-07-19T21:44:05.174Z,97.10
2017-07-19T21:46:34.466Z,95.30
2017-07-19T21:49:02.933Z,96.40
2017-07-19T21:51:32.168Z,97.30
2017-07-19T21:54:00.691Z,98.10
2017-07-19T21:56:29.120Z,98.30
2017-07-19T21:58:57.977Z,97.90
2017-07-19T22:01:26.467Z,98.10
2017-07-19T22:03:54.935Z,96.70
2017-07-19T22:06:23.362Z,97.00
2017-07-19T22:08:52.236Z,97.30
2017-07-19T22:11:20.672Z,97.30
2017-07-19T22:13:49.147Z,97.40
2017-07-19T22:16:17.581Z,96.50
2017-07-19T22:18:46.413Z,95.70
2017-07-19T22:21:14.933Z,95.50
2017-07-19T22:23:44.127Z,96.50
2017-07-19T22:26:12.956Z,94.90
2017-07-19T22:28:41.508Z,97.00
2017-07-19T22:31:09.941Z,95.60
2017-07-19T22:33:38.371Z,95.50
2017-07-19T22:36:07.267Z,96.80
2017-07-19T22:38:36.464Z,97.20
2017-07-19T22:41:04.935Z,97.00
2017-07-19T22:43:34.035Z,98.20
2017-07-19T22:46:02.475Z,98.00
2017-07-19T22:48:30.908Z,99.10
2017-07-19T22:50:59.802Z,98.10
2017-07-19T22:53:28.244Z,98.70
2017-07-19T22:55:57.459Z,98.50
2017-07-19T22:58:25.931Z,97.50
2017-07-19T23:00:55.923Z,98.40
2017-07-19T23:03:24.755Z,99.10
2017-07-19T23:05:53.251Z,99.30
2017-07-19T23:08:21.676Z,98.80
2017-07-19T23:10:50.095Z,99.90
2017-07-19T23:13:19.334Z,99.90
2017-07-19T23:15:47.798Z,99.90
2017-07-19T23:18:16.247Z,99.90
2017-07-19T23:20:44.717Z,99.90
2017-07-19T23:23:13.549Z,99.90
2017-07-19T23:25:42.042Z,99.90
2017-07-19T23:28:10.629Z,99.90
2017-07-19T23:30:39.053Z,99.90
2017-07-19T23:33:07.553Z,99.90
2017-07-19T23:35:35.988Z,99.90
2017-07-19T23:38:04.413Z,99.90
2017-07-19T23:40:33.671Z,99.90
2017-07-19T23:43:02.100Z,99.40
2017-07-19T23:45:31.288Z,99.90
2017-07-19T23:48:00.603Z,99.90
2017-07-19T23:50:29.128Z,99.90
2017-07-19T23:52:57.671Z,99.90
2017-07-19T23:55:25.777Z,99.90
2017-07-19T23:57:54.255Z,99.90
